sensor_id;sensor_type;location;lat;lon;timestamp;P1;durP1;ratioP1;P2;durP2;ratioP2
13303;SDS011;6720;51.958;4.540;2024-03-23T00:53:32;14.73;;;5.23;;
13303;SDS011;6720;51.958;4.540;2024-03-23T00:55:58;17.87;;;4.90;;
13303;SDS011;6720;51.958;4.540;2024-03-23T00:58:23;16.43;;;5.67;;
13303;SDS011;6720;51.958;4.540;2024-03-23T01:00:50;18.43;;;5.23;;
13303;SDS011;6720;51.958;4.540;2024-03-23T01:03:15;20.13;;;5.70;;
13303;SDS011;6720;51.958;4.540;2024-03-23T01:05:41;15.03;;;5.67;;
13303;SDS011;6720;51.958;4.540;2024-03-23T01:08:07;14.80;;;5.43;;
13303;SDS011;6720;51.958;4.540;2024-03-23T01:10:32;17.10;;;6.60;;
13303;SDS011;6720;51.958;4.540;2024-03-23T01:12:58;20.00;;;6.50;;
13303;SDS011;6720;51.958;4.540;2024-03-23T01:15:23;17.67;;;5.97;;
13303;SDS011;6720;51.958;4.540;2024-03-23T01:17:48;17.73;;;6.10;;
13303;SDS011;6720;51.958;4.540;2024-03-23T01:20:13;17.63;;;5.70;;
13303;SDS011;6720;51.958;4.540;2024-03-23T01:22:39;16.10;;;5.90;;
13303;SDS011;6720;51.958;4.540;2024-03-23T01:25:04;21.47;;;6.60;;
13303;SDS011;6720;51.958;4.540;2024-03-23T01:27:29;18.70;;;6.13;;
13303;SDS011;6720;51.958;4.540;2024-03-23T01:29:55;12.97;;;5.67;;
13303;SDS011;6720;51.958;4.540;2024-03-23T01:32:20;18.47;;;5.83;;
13303;SDS011;6720;51.958;4.540;2024-03-23T01:34:45;17.27;;;4.90;;
13303;SDS011;6720;51.958;4.540;2024-03-23T01:37:10;13.43;;;5.33;;
13303;SDS011;6720;51.958;4.540;2024-03-23T01:39:36;14.33;;;5.13;;
13303;SDS011;6720;51.958;4.540;2024-03-23T01:42:01;16.57;;;5.47;;
13303;SDS011;6720;51.958;4.540;2024-03-23T01:44:26;15.17;;;5.30;;
13303;SDS011;6720;51.958;4.540;2024-03-23T01:46:52;12.10;;;4.80;;
13303;SDS011;6720;51.958;4.540;2024-03-23T01:49:17;16.43;;;4.40;;
13303;SDS011;6720;51.958;4.540;2024-03-23T01:51:42;12.33;;;4.87;;
13303;SDS011;6720;51.958;4.540;2024-03-23T01:54:08;14.73;;;4.67;;
13303;SDS011;6720;51.958;4.540;2024-03-23T01:56:34;11.67;;;4.10;;
13303;SDS011;6720;51.958;4.540;2024-03-23T01:59:03;17.20;;;4.23;;
13303;SDS011;6720;51.958;4.540;2024-03-23T02:01:28;13.07;;;4.43;;
13303;SDS011;6720;51.958;4.540;2024-03-23T02:03:54;11.57;;;4.30;;
13303;SDS011;6720;51.958;4.540;2024-03-23T02:06:19;11.37;;;4.10;;
13303;SDS011;6720;51.958;4.540;2024-03-23T02:08:44;14.10;;;4.00;;
13303;SDS011;6720;51.958;4.540;2024-03-23T02:11:10;11.77;;;3.87;;
13303;SDS011;6720;51.958;4.540;2024-03-23T02:13:35;15.37;;;4.23;;
13303;SDS011;6720;51.958;4.540;2024-03-23T02:16:00;15.47;;;4.40;;
13303;SDS011;6720;51.958;4.540;2024-03-23T02:18:26;14.77;;;4.20;;
13303;SDS011;6720;51.958;4.540;2024-03-23T02:20:51;14.03;;;3.90;;
13303;SDS011;6720;51.958;4.540;2024-03-23T02:23:17;16.10;;;4.13;;
13303;SDS011;6720;51.958;4.540;2024-03-23T02:25:43;10.60;;;3.60;;
13303;SDS011;6720;51.958;4.540;2024-03-23T02:28:08;12.87;;;4.20;;
13303;SDS011;6720;51.958;4.540;2024-03-23T02:30:34;18.00;;;4.30;;
13303;SDS011;6720;51.958;4.540;2024-03-23T02:32:59;13.93;;;3.87;;
13303;SDS011;6720;51.958;4.540;2024-03-23T02:35:24;9.57;;;3.40;;
13303;SDS011;6720;51.958;4.540;2024-03-23T02:37:50;11.47;;;3.70;;
13303;SDS011;6720;51.958;4.540;2024-03-23T02:40:15;16.87;;;4.17;;
13303;SDS011;6720;51.958;4.540;2024-03-23T02:42:41;13.23;;;3.80;;
13303;SDS011;6720;51.958;4.540;2024-03-23T02:45:06;12.60;;;4.00;;
13303;SDS011;6720;51.958;4.540;2024-03-23T02:47:32;11.63;;;3.97;;
13303;SDS011;6720;51.958;4.540;2024-03-23T02:49:57;12.47;;;3.50;;
13303;SDS011;6720;51.958;4.540;2024-03-23T02:52:23;13.00;;;4.23;;
13303;SDS011;6720;51.958;4.540;2024-03-23T02:54:48;10.17;;;3.40;;
13303;SDS011;6720;51.958;4.540;2024-03-23T02:57:13;13.10;;;4.27;;
13303;SDS011;6720;51.958;4.540;2024-03-23T02:59:40;13.63;;;3.90;;
13303;SDS011;6720;51.958;4.540;2024-03-23T03:02:05;16.67;;;4.90;;
13303;SDS011;6720;51.958;4.540;2024-03-23T03:04:30;16.77;;;3.77;;
13303;SDS011;6720;51.958;4.540;2024-03-23T03:06:56;12.60;;;3.83;;
13303;SDS011;6720;51.958;4.540;2024-03-23T03:09:21;10.57;;;3.87;;
13303;SDS011;6720;51.958;4.540;2024-03-23T03:11:47;11.00;;;3.80;;
13303;SDS011;6720;51.958;4.540;2024-03-23T03:14:12;13.60;;;4.27;;
13303;SDS011;6720;51.958;4.540;2024-03-23T03:16:37;15.63;;;4.20;;
13303;SDS011;6720;51.958;4.540;2024-03-23T03:19:03;12.83;;;3.80;;
13303;SDS011;6720;51.958;4.540;2024-03-23T03:21:28;14.83;;;4.00;;
13303;SDS011;6720;51.958;4.540;2024-03-23T03:23:53;11.40;;;3.53;;
13303;SDS011;6720;51.958;4.540;2024-03-23T03:26:21;12.33;;;3.80;;
13303;SDS011;6720;51.958;4.540;2024-03-23T03:28:46;14.53;;;3.90;;
13303;SDS011;6720;51.958;4.540;2024-03-23T03:31:14;12.93;;;3.90;;
13303;SDS011;6720;51.958;4.540;2024-03-23T03:33:39;12.23;;;3.50;;
13303;SDS011;6720;51.958;4.540;2024-03-23T03:36:05;13.60;;;4.23;;
13303;SDS011;6720;51.958;4.540;2024-03-23T03:38:30;9.27;;;2.87;;
13303;SDS011;6720;51.958;4.540;2024-03-23T03:40:55;10.83;;;3.60;;
13303;SDS011;6720;51.958;4.540;2024-03-23T03:43:20;13.70;;;3.40;;
13303;SDS011;6720;51.958;4.540;2024-03-23T03:45:56;9.83;;;3.17;;
13303;SDS011;6720;51.958;4.540;2024-03-23T03:48:21;11.77;;;3.70;;
13303;SDS011;6720;51.958;4.540;2024-03-23T03:50:47;14.20;;;3.67;;
13303;SDS011;6720;51.958;4.540;2024-03-23T03:53:12;13.40;;;3.37;;
13303;SDS011;6720;51.958;4.540;2024-03-23T03:55:37;10.23;;;3.10;;
13303;SDS011;6720;51.958;4.540;2024-03-23T03:58:03;12.03;;;3.23;;
13303;SDS011;6720;51.958;4.540;2024-03-23T04:00:29;11.07;;;3.23;;
13303;SDS011;6720;51.958;4.540;2024-03-23T04:02:54;8.57;;;3.07;;
13303;SDS011;6720;51.958;4.540;2024-03-23T04:05:20;9.53;;;3.23;;
13303;SDS011;6720;51.958;4.540;2024-03-23T04:07:45;9.03;;;3.20;;
13303;SDS011;6720;51.958;4.540;2024-03-23T04:10:10;8.77;;;3.03;;
13303;SDS011;6720;51.958;4.540;2024-03-23T04:12:36;6.23;;;2.97;;
13303;SDS011;6720;51.958;4.540;2024-03-23T04:15:01;10.13;;;3.50;;
13303;SDS011;6720;51.958;4.540;2024-03-23T04:17:29;9.57;;;3.23;;
13303;SDS011;6720;51.958;4.540;2024-03-23T04:19:57;10.93;;;3.23;;
13303;SDS011;6720;51.958;4.540;2024-03-23T04:22:22;12.40;;;3.63;;
13303;SDS011;6720;51.958;4.540;2024-03-23T04:24:49;15.93;;;3.20;;
13303;SDS011;6720;51.958;4.540;2024-03-23T04:27:14;10.73;;;2.93;;
13303;SDS011;6720;51.958;4.540;2024-03-23T04:29:39;10.73;;;3.00;;
13303;SDS011;6720;51.958;4.540;2024-03-23T04:32:05;12.93;;;3.57;;
13303;SDS011;6720;51.958;4.540;2024-03-23T04:34:30;12.00;;;3.50;;
13303;SDS011;6720;51.958;4.540;2024-03-23T04:36:57;14.07;;;3.23;;
13303;SDS011;6720;51.958;4.540;2024-03-23T04:39:23;10.87;;;3.30;;
13303;SDS011;6720;51.958;4.540;2024-03-23T04:41:48;7.57;;;3.37;;
13303;SDS011;6720;51.958;4.540;2024-03-23T04:44:13;10.53;;;3.10;;
13303;SDS011;6720;51.958;4.540;2024-03-23T04:46:39;9.27;;;3.13;;
13303;SDS011;6720;51.958;4.540;2024-03-23T04:49:04;10.53;;;3.20;;
13303;SDS011;6720;51.958;4.540;2024-03-23T04:51:34;13.47;;;3.83;;
13303;SDS011;6720;51.958;4.540;2024-03-23T04:54:00;13.37;;;3.80;;
13303;SDS011;6720;51.958;4.540;2024-03-23T04:56:25;10.23;;;3.60;;
13303;SDS011;6720;51.958;4.540;2024-03-23T04:58:50;10.13;;;3.37;;
13303;SDS011;6720;51.958;4.540;2024-03-23T05:01:15;9.73;;;3.37;;
13303;SDS011;6720;51.958;4.540;2024-03-23T05:03:41;9.47;;;3.77;;
13303;SDS011;6720;51.958;4.540;2024-03-23T05:06:06;10.00;;;3.70;;
13303;SDS011;6720;51.958;4.540;2024-03-23T05:08:31;11.10;;;3.03;;
13303;SDS011;6720;51.958;4.540;2024-03-23T05:10:57;9.40;;;4.00;;
13303;SDS011;6720;51.958;4.540;2024-03-23T05:13:22;16.00;;;3.87;;
13303;SDS011;6720;51.958;4.540;2024-03-23T05:15:53;12.37;;;4.27;;
13303;SDS011;6720;51.958;4.540;2024-03-23T05:18:19;19.13;;;4.53;;
13303;SDS011;6720;51.958;4.540;2024-03-23T05:20:44;13.20;;;4.60;;
13303;SDS011;6720;51.958;4.540;2024-03-23T05:23:10;10.23;;;3.83;;
13303;SDS011;6720;51.958;4.540;2024-03-23T05:25:35;12.73;;;3.97;;
13303;SDS011;6720;51.958;4.540;2024-03-23T05:28:00;13.63;;;4.10;;
13303;SDS011;6720;51.958;4.540;2024-03-23T05:30:35;11.40;;;3.47;;
13303;SDS011;6720;51.958;4.540;2024-03-23T05:33:20;13.23;;;4.20;;
13303;SDS011;6720;51.958;4.540;2024-03-23T05:36:01;13.70;;;3.90;;
13303;SDS011;6720;51.958;4.540;2024-03-23T05:38:51;6.83;;;3.57;;
13303;SDS011;6720;51.958;4.540;2024-03-23T05:41:27;10.33;;;3.97;;
13303;SDS011;6720;51.958;4.540;2024-03-23T05:43:54;10.13;;;3.93;;
13303;SDS011;6720;51.958;4.540;2024-03-23T05:46:20;9.67;;;4.13;;
13303;SDS011;6720;51.958;4.540;2024-03-23T05:48:46;13.23;;;4.50;;
13303;SDS011;6720;51.958;4.540;2024-03-23T05:51:11;13.03;;;3.80;;
13303;SDS011;6720;51.958;4.540;2024-03-23T05:53:37;11.53;;;3.83;;
13303;SDS011;6720;51.958;4.540;2024-03-23T05:56:03;11.17;;;3.77;;
13303;SDS011;6720;51.958;4.540;2024-03-23T05:58:29;9.97;;;3.80;;
13303;SDS011;6720;51.958;4.540;2024-03-23T06:00:58;8.97;;;3.43;;
13303;SDS011;6720;51.958;4.540;2024-03-23T06:03:24;11.47;;;4.13;;
13303;SDS011;6720;51.958;4.540;2024-03-23T06:05:50;13.43;;;4.00;;
13303;SDS011;6720;51.958;4.540;2024-03-23T06:08:16;11.90;;;3.60;;
13303;SDS011;6720;51.958;4.540;2024-03-23T06:10:41;10.00;;;3.57;;
13303;SDS011;6720;51.958;4.540;2024-03-23T06:13:06;11.70;;;4.20;;
13303;SDS011;6720;51.958;4.540;2024-03-23T06:15:33;12.37;;;4.40;;
13303;SDS011;6720;51.958;4.540;2024-03-23T06:18:02;11.13;;;3.67;;
13303;SDS011;6720;51.958;4.540;2024-03-23T06:20:29;9.57;;;3.83;;
13303;SDS011;6720;51.958;4.540;2024-03-23T06:22:54;8.70;;;3.17;;
13303;SDS011;6720;51.958;4.540;2024-03-23T06:25:19;13.20;;;4.03;;
13303;SDS011;6720;51.958;4.540;2024-03-23T06:27:46;10.17;;;3.57;;
13303;SDS011;6720;51.958;4.540;2024-03-23T06:30:11;8.37;;;3.20;;
13303;SDS011;6720;51.958;4.540;2024-03-23T06:32:37;10.73;;;3.37;;
13303;SDS011;6720;51.958;4.540;2024-03-23T06:35:02;11.83;;;3.80;;
13303;SDS011;6720;51.958;4.540;2024-03-23T06:37:33;8.33;;;3.50;;
13303;SDS011;6720;51.958;4.540;2024-03-23T06:39:58;12.80;;;3.43;;
13303;SDS011;6720;51.958;4.540;2024-03-23T06:42:24;10.13;;;3.47;;
13303;SDS011;6720;51.958;4.540;2024-03-23T06:44:49;10.53;;;3.70;;
13303;SDS011;6720;51.958;4.540;2024-03-23T06:47:14;14.00;;;3.73;;
13303;SDS011;6720;51.958;4.540;2024-03-23T06:49:40;10.37;;;3.80;;
13303;SDS011;6720;51.958;4.540;2024-03-23T06:52:05;9.40;;;3.40;;
13303;SDS011;6720;51.958;4.540;2024-03-23T06:54:31;8.10;;;3.03;;
13303;SDS011;6720;51.958;4.540;2024-03-23T06:56:56;8.93;;;3.20;;
13303;SDS011;6720;51.958;4.540;2024-03-23T06:59:21;10.93;;;3.57;;
13303;SDS011;6720;51.958;4.540;2024-03-23T07:01:47;8.33;;;3.47;;
13303;SDS011;6720;51.958;4.540;2024-03-23T07:04:12;11.20;;;4.00;;
13303;SDS011;6720;51.958;4.540;2024-03-23T07:06:44;10.53;;;3.50;;
13303;SDS011;6720;51.958;4.540;2024-03-23T07:09:09;11.50;;;3.40;;
13303;SDS011;6720;51.958;4.540;2024-03-23T07:11:35;11.03;;;3.50;;
13303;SDS011;6720;51.958;4.540;2024-03-23T07:14:00;15.40;;;3.70;;
13303;SDS011;6720;51.958;4.540;2024-03-23T07:16:29;12.17;;;3.53;;
13303;SDS011;6720;51.958;4.540;2024-03-23T07:18:55;9.33;;;3.20;;
13303;SDS011;6720;51.958;4.540;2024-03-23T07:21:20;11.17;;;3.50;;
13303;SDS011;6720;51.958;4.540;2024-03-23T07:23:46;13.30;;;3.47;;
13303;SDS011;6720;51.958;4.540;2024-03-23T07:26:11;10.60;;;3.17;;
13303;SDS011;6720;51.958;4.540;2024-03-23T07:28:36;11.47;;;3.87;;
13303;SDS011;6720;51.958;4.540;2024-03-23T07:31:03;9.77;;;3.50;;
13303;SDS011;6720;51.958;4.540;2024-03-23T07:33:29;9.97;;;3.83;;
13303;SDS011;6720;51.958;4.540;2024-03-23T07:35:54;12.23;;;3.30;;
13303;SDS011;6720;51.958;4.540;2024-03-23T07:38:26;11.77;;;4.13;;
13303;SDS011;6720;51.958;4.540;2024-03-23T07:41:05;9.20;;;3.10;;
13303;SDS011;6720;51.958;4.540;2024-03-23T07:43:31;8.13;;;2.83;;
13303;SDS011;6720;51.958;4.540;2024-03-23T07:45:58;14.30;;;3.57;;
13303;SDS011;6720;51.958;4.540;2024-03-23T07:48:24;8.80;;;2.90;;
13303;SDS011;6720;51.958;4.540;2024-03-23T07:51:02;10.20;;;3.40;;
13303;SDS011;6720;51.958;4.540;2024-03-23T07:53:29;9.63;;;3.17;;
13303;SDS011;6720;51.958;4.540;2024-03-23T07:55:55;10.37;;;3.33;;
13303;SDS011;6720;51.958;4.540;2024-03-23T07:58:21;9.87;;;3.10;;
13303;SDS011;6720;51.958;4.540;2024-03-23T08:00:46;12.13;;;3.17;;
13303;SDS011;6720;51.958;4.540;2024-03-23T08:03:11;10.77;;;3.57;;
13303;SDS011;6720;51.958;4.540;2024-03-23T08:05:37;11.17;;;3.53;;
13303;SDS011;6720;51.958;4.540;2024-03-23T08:08:02;13.37;;;3.10;;
13303;SDS011;6720;51.958;4.540;2024-03-23T08:10:28;7.03;;;3.33;;
13303;SDS011;6720;51.958;4.540;2024-03-23T08:12:53;9.00;;;3.10;;
13303;SDS011;6720;51.958;4.540;2024-03-23T08:15:20;9.50;;;2.93;;
13303;SDS011;6720;51.958;4.540;2024-03-23T08:17:46;10.10;;;3.23;;
13303;SDS011;6720;51.958;4.540;2024-03-23T08:20:11;10.40;;;3.40;;
13303;SDS011;6720;51.958;4.540;2024-03-23T08:22:36;10.87;;;3.60;;
13303;SDS011;6720;51.958;4.540;2024-03-23T08:25:02;13.93;;;3.60;;
13303;SDS011;6720;51.958;4.540;2024-03-23T08:27:27;10.40;;;3.50;;
13303;SDS011;6720;51.958;4.540;2024-03-23T08:29:52;10.63;;;3.57;;
13303;SDS011;6720;51.958;4.540;2024-03-23T08:32:17;12.90;;;3.87;;
13303;SDS011;6720;51.958;4.540;2024-03-23T08:34:43;9.13;;;3.60;;
13303;SDS011;6720;51.958;4.540;2024-03-23T08:37:08;8.63;;;3.40;;
13303;SDS011;6720;51.958;4.540;2024-03-23T08:39:34;14.40;;;3.93;;
13303;SDS011;6720;51.958;4.540;2024-03-23T08:41:59;10.13;;;3.30;;
13303;SDS011;6720;51.958;4.540;2024-03-23T08:44:24;7.73;;;3.80;;
13303;SDS011;6720;51.958;4.540;2024-03-23T08:46:50;7.70;;;3.10;;
13303;SDS011;6720;51.958;4.540;2024-03-23T08:49:15;9.53;;;3.10;;
13303;SDS011;6720;51.958;4.540;2024-03-23T08:51:41;11.27;;;3.13;;
13303;SDS011;6720;51.958;4.540;2024-03-23T08:54:06;9.70;;;3.50;;
13303;SDS011;6720;51.958;4.540;2024-03-23T08:56:32;8.93;;;3.80;;
13303;SDS011;6720;51.958;4.540;2024-03-23T08:58:57;12.60;;;3.97;;
13303;SDS011;6720;51.958;4.540;2024-03-23T09:01:22;9.53;;;3.27;;
13303;SDS011;6720;51.958;4.540;2024-03-23T09:03:48;10.70;;;3.83;;
13303;SDS011;6720;51.958;4.540;2024-03-23T09:06:14;13.73;;;3.93;;
13303;SDS011;6720;51.958;4.540;2024-03-23T09:08:39;10.90;;;3.27;;
13303;SDS011;6720;51.958;4.540;2024-03-23T09:11:12;12.20;;;3.30;;
13303;SDS011;6720;51.958;4.540;2024-03-23T09:13:38;8.80;;;2.70;;
13303;SDS011;6720;51.958;4.540;2024-03-23T09:16:04;10.10;;;3.13;;
13303;SDS011;6720;51.958;4.540;2024-03-23T09:18:33;11.10;;;4.07;;
13303;SDS011;6720;51.958;4.540;2024-03-23T09:21:00;9.80;;;3.67;;
13303;SDS011;6720;51.958;4.540;2024-03-23T09:23:25;11.97;;;3.53;;
13303;SDS011;6720;51.958;4.540;2024-03-23T09:25:51;8.27;;;3.53;;
13303;SDS011;6720;51.958;4.540;2024-03-23T09:28:16;7.57;;;2.73;;
13303;SDS011;6720;51.958;4.540;2024-03-23T09:30:42;12.20;;;3.17;;
13303;SDS011;6720;51.958;4.540;2024-03-23T09:33:08;7.30;;;3.23;;
13303;SDS011;6720;51.958;4.540;2024-03-23T09:35:37;7.20;;;3.20;;
13303;SDS011;6720;51.958;4.540;2024-03-23T09:38:02;10.70;;;3.90;;
13303;SDS011;6720;51.958;4.540;2024-03-23T09:40:27;11.33;;;3.20;;
13303;SDS011;6720;51.958;4.540;2024-03-23T09:42:53;10.40;;;3.00;;
13303;SDS011;6720;51.958;4.540;2024-03-23T09:45:21;10.30;;;3.20;;
13303;SDS011;6720;51.958;4.540;2024-03-23T09:47:47;8.93;;;3.50;;
13303;SDS011;6720;51.958;4.540;2024-03-23T09:50:13;10.20;;;3.10;;
13303;SDS011;6720;51.958;4.540;2024-03-23T09:52:39;8.43;;;2.83;;
13303;SDS011;6720;51.958;4.540;2024-03-23T09:55:04;9.60;;;3.07;;
13303;SDS011;6720;51.958;4.540;2024-03-23T09:57:29;7.90;;;3.10;;
13303;SDS011;6720;51.958;4.540;2024-03-23T09:59:55;9.20;;;3.20;;
13303;SDS011;6720;51.958;4.540;2024-03-23T10:02:23;10.73;;;3.17;;
13303;SDS011;6720;51.958;4.540;2024-03-23T10:04:50;8.03;;;3.03;;
13303;SDS011;6720;51.958;4.540;2024-03-23T10:07:18;7.23;;;3.37;;
13303;SDS011;6720;51.958;4.540;2024-03-23T10:09:43;12.77;;;3.90;;
13303;SDS011;6720;51.958;4.540;2024-03-23T10:12:17;10.30;;;3.37;;
13303;SDS011;6720;51.958;4.540;2024-03-23T10:14:42;10.87;;;2.90;;
13303;SDS011;6720;51.958;4.540;2024-03-23T10:17:11;8.93;;;3.37;;
13303;SDS011;6720;51.958;4.540;2024-03-23T10:19:43;13.47;;;4.23;;
13303;SDS011;6720;51.958;4.540;2024-03-23T10:22:09;8.83;;;3.40;;
13303;SDS011;6720;51.958;4.540;2024-03-23T10:24:34;9.03;;;3.07;;
13303;SDS011;6720;51.958;4.540;2024-03-23T10:27:00;10.10;;;3.53;;
13303;SDS011;6720;51.958;4.540;2024-03-23T10:29:25;10.03;;;3.67;;
13303;SDS011;6720;51.958;4.540;2024-03-23T10:31:53;10.73;;;3.43;;
13303;SDS011;6720;51.958;4.540;2024-03-23T10:34:25;8.77;;;3.33;;
13303;SDS011;6720;51.958;4.540;2024-03-23T10:36:53;14.83;;;3.70;;
13303;SDS011;6720;51.958;4.540;2024-03-23T10:39:18;11.47;;;3.47;;
13303;SDS011;6720;51.958;4.540;2024-03-23T10:41:46;9.63;;;3.53;;
13303;SDS011;6720;51.958;4.540;2024-03-23T10:44:13;10.40;;;3.33;;
13303;SDS011;6720;51.958;4.540;2024-03-23T10:46:39;6.87;;;2.90;;
13303;SDS011;6720;51.958;4.540;2024-03-23T10:49:04;9.20;;;2.70;;
13303;SDS011;6720;51.958;4.540;2024-03-23T10:51:30;10.30;;;3.80;;
13303;SDS011;6720;51.958;4.540;2024-03-23T10:53:55;8.30;;;3.13;;
13303;SDS011;6720;51.958;4.540;2024-03-23T10:56:21;10.27;;;3.03;;
13303;SDS011;6720;51.958;4.540;2024-03-23T10:58:47;10.10;;;3.47;;
13303;SDS011;6720;51.958;4.540;2024-03-23T11:01:14;9.63;;;3.03;;
13303;SDS011;6720;51.958;4.540;2024-03-23T11:03:44;8.67;;;3.40;;
13303;SDS011;6720;51.958;4.540;2024-03-23T11:06:10;8.97;;;3.20;;
13303;SDS011;6720;51.958;4.540;2024-03-23T11:08:36;12.93;;;4.17;;
13303;SDS011;6720;51.958;4.540;2024-03-23T11:11:12;10.87;;;4.43;;
13303;SDS011;6720;51.958;4.540;2024-03-23T11:13:38;9.33;;;3.43;;
13303;SDS011;6720;51.958;4.540;2024-03-23T11:16:22;8.67;;;3.43;;
13303;SDS011;6720;51.958;4.540;2024-03-23T11:18:48;10.03;;;3.77;;
13303;SDS011;6720;51.958;4.540;2024-03-23T11:22:14;11.07;;;3.23;;
13303;SDS011;6720;51.958;4.540;2024-03-23T11:24:14;10.97;;;4.10;;
13303;SDS011;6720;51.958;4.540;2024-03-23T11:26:40;6.70;;;2.97;;
13303;SDS011;6720;51.958;4.540;2024-03-23T11:29:08;9.10;;;3.33;;
13303;SDS011;6720;51.958;4.540;2024-03-23T11:31:34;10.90;;;4.00;;
13303;SDS011;6720;51.958;4.540;2024-03-23T11:34:04;7.60;;;3.67;;
13303;SDS011;6720;51.958;4.540;2024-03-23T11:36:30;12.40;;;3.53;;
13303;SDS011;6720;51.958;4.540;2024-03-23T11:38:55;9.07;;;3.17;;
13303;SDS011;6720;51.958;4.540;2024-03-23T11:41:21;11.47;;;3.23;;
13303;SDS011;6720;51.958;4.540;2024-03-23T11:43:46;9.73;;;3.10;;
13303;SDS011;6720;51.958;4.540;2024-03-23T11:46:11;10.93;;;3.70;;
13303;SDS011;6720;51.958;4.540;2024-03-23T11:48:49;11.50;;;2.90;;
13303;SDS011;6720;51.958;4.540;2024-03-23T11:51:14;6.73;;;3.00;;
13303;SDS011;6720;51.958;4.540;2024-03-23T11:53:39;10.10;;;3.47;;
13303;SDS011;6720;51.958;4.540;2024-03-23T11:56:05;8.63;;;2.83;;
13303;SDS011;6720;51.958;4.540;2024-03-23T11:58:30;13.03;;;3.67;;
13303;SDS011;6720;51.958;4.540;2024-03-23T12:00:58;10.27;;;3.40;;
13303;SDS011;6720;51.958;4.540;2024-03-23T12:03:23;12.27;;;3.10;;
13303;SDS011;6720;51.958;4.540;2024-03-23T12:05:54;8.20;;;3.30;;
13303;SDS011;6720;51.958;4.540;2024-03-23T12:10:49;9.27;;;3.10;;
13303;SDS011;6720;51.958;4.540;2024-03-23T12:13:16;14.63;;;3.30;;
13303;SDS011;6720;51.958;4.540;2024-03-23T12:15:42;8.47;;;3.40;;
13303;SDS011;6720;51.958;4.540;2024-03-23T12:18:07;7.47;;;2.63;;
13303;SDS011;6720;51.958;4.540;2024-03-23T12:20:33;7.50;;;3.23;;
13303;SDS011;6720;51.958;4.540;2024-03-23T12:23:05;7.17;;;2.70;;
13303;SDS011;6720;51.958;4.540;2024-03-23T12:25:30;10.43;;;3.73;;
13303;SDS011;6720;51.958;4.540;2024-03-23T12:27:58;10.57;;;3.27;;
13303;SDS011;6720;51.958;4.540;2024-03-23T12:30:23;7.93;;;3.10;;
13303;SDS011;6720;51.958;4.540;2024-03-23T12:32:48;8.13;;;2.73;;
13303;SDS011;6720;51.958;4.540;2024-03-23T12:35:14;8.27;;;2.67;;
13303;SDS011;6720;51.958;4.540;2024-03-23T12:37:39;9.93;;;4.40;;
13303;SDS011;6720;51.958;4.540;2024-03-23T12:40:05;7.57;;;3.27;;
13303;SDS011;6720;51.958;4.540;2024-03-23T12:42:30;8.83;;;2.50;;
13303;SDS011;6720;51.958;4.540;2024-03-23T12:44:56;8.87;;;3.30;;
13303;SDS011;6720;51.958;4.540;2024-03-23T12:47:21;10.53;;;2.87;;
13303;SDS011;6720;51.958;4.540;2024-03-23T12:49:46;8.03;;;2.97;;
13303;SDS011;6720;51.958;4.540;2024-03-23T12:52:14;7.90;;;3.03;;
13303;SDS011;6720;51.958;4.540;2024-03-23T12:54:39;8.03;;;3.10;;
13303;SDS011;6720;51.958;4.540;2024-03-23T12:57:05;10.87;;;3.57;;
13303;SDS011;6720;51.958;4.540;2024-03-23T12:59:30;6.33;;;2.40;;
13303;SDS011;6720;51.958;4.540;2024-03-23T13:01:55;8.33;;;2.77;;
13303;SDS011;6720;51.958;4.540;2024-03-23T13:04:20;7.07;;;2.70;;
13303;SDS011;6720;51.958;4.540;2024-03-23T13:06:46;9.50;;;2.73;;
13303;SDS011;6720;51.958;4.540;2024-03-23T13:09:11;11.00;;;3.30;;
13303;SDS011;6720;51.958;4.540;2024-03-23T13:11:36;9.53;;;2.80;;
13303;SDS011;6720;51.958;4.540;2024-03-23T13:14:02;10.07;;;2.90;;
13303;SDS011;6720;51.958;4.540;2024-03-23T13:16:29;8.37;;;3.97;;
13303;SDS011;6720;51.958;4.540;2024-03-23T13:18:54;6.83;;;2.70;;
13303;SDS011;6720;51.958;4.540;2024-03-23T13:21:19;6.03;;;2.53;;
13303;SDS011;6720;51.958;4.540;2024-03-23T13:23:48;8.87;;;2.50;;
13303;SDS011;6720;51.958;4.540;2024-03-23T13:26:16;9.17;;;2.43;;
13303;SDS011;6720;51.958;4.540;2024-03-23T13:28:41;6.97;;;2.70;;
13303;SDS011;6720;51.958;4.540;2024-03-23T13:31:06;7.13;;;2.60;;
13303;SDS011;6720;51.958;4.540;2024-03-23T13:33:33;9.07;;;2.93;;
13303;SDS011;6720;51.958;4.540;2024-03-23T13:35:58;8.47;;;2.87;;
13303;SDS011;6720;51.958;4.540;2024-03-23T13:38:24;8.63;;;3.27;;
13303;SDS011;6720;51.958;4.540;2024-03-23T13:40:56;7.47;;;2.90;;
13303;SDS011;6720;51.958;4.540;2024-03-23T13:43:22;6.03;;;2.60;;
13303;SDS011;6720;51.958;4.540;2024-03-23T13:45:48;9.20;;;2.90;;
13303;SDS011;6720;51.958;4.540;2024-03-23T13:48:15;6.90;;;2.43;;
13303;SDS011;6720;51.958;4.540;2024-03-23T13:50:41;6.37;;;2.03;;
13303;SDS011;6720;51.958;4.540;2024-03-23T13:53:06;4.93;;;2.00;;
13303;SDS011;6720;51.958;4.540;2024-03-23T13:55:33;5.53;;;1.87;;
13303;SDS011;6720;51.958;4.540;2024-03-23T13:57:58;4.40;;;2.20;;
13303;SDS011;6720;51.958;4.540;2024-03-23T14:00:23;3.97;;;1.80;;
13303;SDS011;6720;51.958;4.540;2024-03-23T14:02:49;3.43;;;1.60;;
13303;SDS011;6720;51.958;4.540;2024-03-23T14:05:14;4.50;;;3.30;;
13303;SDS011;6720;51.958;4.540;2024-03-23T14:07:39;2.80;;;1.57;;
13303;SDS011;6720;51.958;4.540;2024-03-23T14:10:05;5.10;;;1.77;;
13303;SDS011;6720;51.958;4.540;2024-03-23T14:12:38;4.60;;;2.07;;
13303;SDS011;6720;51.958;4.540;2024-03-23T14:15:07;5.57;;;2.10;;
13303;SDS011;6720;51.958;4.540;2024-03-23T14:17:32;4.77;;;2.20;;
13303;SDS011;6720;51.958;4.540;2024-03-23T14:19:58;5.93;;;2.37;;
13303;SDS011;6720;51.958;4.540;2024-03-23T14:22:26;4.27;;;2.40;;
13303;SDS011;6720;51.958;4.540;2024-03-23T14:24:51;6.53;;;2.33;;
13303;SDS011;6720;51.958;4.540;2024-03-23T14:27:17;5.00;;;2.27;;
13303;SDS011;6720;51.958;4.540;2024-03-23T14:29:45;8.33;;;2.50;;
13303;SDS011;6720;51.958;4.540;2024-03-23T14:32:11;4.53;;;2.57;;
13303;SDS011;6720;51.958;4.540;2024-03-23T14:34:36;7.80;;;2.40;;
13303;SDS011;6720;51.958;4.540;2024-03-23T14:37:02;5.60;;;2.73;;
13303;SDS011;6720;51.958;4.540;2024-03-23T14:39:28;7.47;;;2.67;;
13303;SDS011;6720;51.958;4.540;2024-03-23T14:41:53;7.70;;;2.57;;
13303;SDS011;6720;51.958;4.540;2024-03-23T14:44:19;8.20;;;2.37;;
13303;SDS011;6720;51.958;4.540;2024-03-23T14:46:44;7.20;;;2.50;;
13303;SDS011;6720;51.958;4.540;2024-03-23T14:49:14;4.93;;;2.80;;
13303;SDS011;6720;51.958;4.540;2024-03-23T14:51:41;8.90;;;2.60;;
13303;SDS011;6720;51.958;4.540;2024-03-23T14:54:06;4.87;;;1.90;;
13303;SDS011;6720;51.958;4.540;2024-03-23T14:56:32;7.63;;;2.60;;
13303;SDS011;6720;51.958;4.540;2024-03-23T14:58:57;6.30;;;2.50;;
13303;SDS011;6720;51.958;4.540;2024-03-23T15:01:22;7.17;;;2.10;;
13303;SDS011;6720;51.958;4.540;2024-03-23T15:03:48;4.67;;;2.07;;
13303;SDS011;6720;51.958;4.540;2024-03-23T15:06:13;4.50;;;2.33;;
13303;SDS011;6720;51.958;4.540;2024-03-23T15:08:38;3.90;;;2.20;;
13303;SDS011;6720;51.958;4.540;2024-03-23T15:11:05;5.87;;;2.30;;
13303;SDS011;6720;51.958;4.540;2024-03-23T15:13:34;5.67;;;2.40;;
13303;SDS011;6720;51.958;4.540;2024-03-23T15:15:59;5.47;;;2.47;;
13303;SDS011;6720;51.958;4.540;2024-03-23T15:18:25;5.73;;;1.67;;
13303;SDS011;6720;51.958;4.540;2024-03-23T15:23:19;5.70;;;2.30;;
13303;SDS011;6720;51.958;4.540;2024-03-23T15:25:53;4.63;;;1.70;;
13303;SDS011;6720;51.958;4.540;2024-03-23T15:28:19;3.17;;;1.70;;
13303;SDS011;6720;51.958;4.540;2024-03-23T15:30:44;4.70;;;1.80;;
13303;SDS011;6720;51.958;4.540;2024-03-23T15:33:10;4.10;;;1.70;;
13303;SDS011;6720;51.958;4.540;2024-03-23T15:35:35;6.67;;;2.60;;
13303;SDS011;6720;51.958;4.540;2024-03-23T15:38:00;4.90;;;2.07;;
13303;SDS011;6720;51.958;4.540;2024-03-23T15:40:25;6.00;;;1.87;;
13303;SDS011;6720;51.958;4.540;2024-03-23T15:42:52;3.63;;;2.00;;
13303;SDS011;6720;51.958;4.540;2024-03-23T15:45:17;6.93;;;2.10;;